createdAt,value
2023-09-11T00:00:17.122Z,35.12
2023-09-11T00:02:44.262Z,34.83
2023-09-11T00:05:11.609Z,34.99
2023-09-11T00:07:38.735Z,34.76
2023-09-11T00:10:08.277Z,35.04
2023-09-11T00:12:35.457Z,35.35
2023-09-11T00:15:02.841Z,34.84
2023-09-11T00:17:30.868Z,34.28
2023-09-11T00:19:58.116Z,34.39
2023-09-11T00:22:25.183Z,35.13
2023-09-11T00:24:52.199Z,34.68
2023-09-11T00:27:20.737Z,35.25
2023-09-11T00:29:47.873Z,34.91
2023-09-11T00:32:14.903Z,34.86
2023-09-11T00:34:41.968Z,34.92
2023-09-11T00:37:09.038Z,35.21
2023-09-11T00:39:36.075Z,35.21
2023-09-11T00:42:03.364Z,35.45
2023-09-11T00:44:32.027Z,35.62
2023-09-11T00:47:00.059Z,35.86
2023-09-11T00:49:27.436Z,35.47
2023-09-11T00:51:56.114Z,36.02
2023-09-11T00:54:25.115Z,35.60
2023-09-11T00:56:52.240Z,36.03
2023-09-11T00:59:20.261Z,35.98
2023-09-11T01:01:50.158Z,35.47
2023-09-11T01:04:18.184Z,35.88
2023-09-11T01:06:47.408Z,35.19
2023-09-11T01:09:15.125Z,35.54
2023-09-11T01:11:42.170Z,35.04
2023-09-11T01:14:09.446Z,35.54
2023-09-11T01:16:45.277Z,35.35
2023-09-11T01:19:37.368Z,35.61
2023-09-11T01:22:27.018Z,35.45
2023-09-11T01:25:21.213Z,35.63
2023-09-11T01:28:14.615Z,35.66
2023-09-11T01:30:46.772Z,35.36
2023-09-11T01:33:14.702Z,35.90
2023-09-11T01:35:41.888Z,35.48
2023-09-11T01:38:09.859Z,34.87
2023-09-11T01:40:42.317Z,35.14
2023-09-11T01:43:12.986Z,34.89
2023-09-11T01:45:43.468Z,34.89
2023-09-11T01:48:14.418Z,34.89
2023-09-11T01:50:43.738Z,34.94
2023-09-11T01:53:12.322Z,35.27
2023-09-11T01:55:40.301Z,35.12
2023-09-11T01:58:07.479Z,35.18
2023-09-11T02:00:34.725Z,34.85
2023-09-11T02:03:03.616Z,35.62
2023-09-11T02:05:30.990Z,35.09
2023-09-11T02:07:58.109Z,35.34
2023-09-11T02:10:25.162Z,35.47
2023-09-11T02:12:52.205Z,35.08
2023-09-11T02:15:19.198Z,35.27
2023-09-11T02:17:46.789Z,35.49
2023-09-11T02:20:15.498Z,35.40
2023-09-11T02:22:42.560Z,35.40
2023-09-11T02:25:09.840Z,35.27
2023-09-11T02:27:36.940Z,35.16
2023-09-11T02:30:04.982Z,35.11
2023-09-11T02:32:32.178Z,35.23
2023-09-11T02:34:59.380Z,34.93
2023-09-11T02:37:27.896Z,34.94
2023-09-11T02:39:55.019Z,35.04
2023-09-11T02:42:22.246Z,35.32
2023-09-11T02:44:49.312Z,35.33
2023-09-11T02:47:16.397Z,35.50
2023-09-11T02:49:43.490Z,35.59
2023-09-11T02:52:10.584Z,35.92
2023-09-11T02:57:10.979Z,35.71
2023-09-11T02:59:38.096Z,35.98
2023-09-11T03:04:46.567Z,35.76
2023-09-11T03:07:13.642Z,35.75
2023-09-11T03:09:42.125Z,35.97
2023-09-11T03:12:09.300Z,35.86
2023-09-11T03:14:36.463Z,36.02
2023-09-11T03:17:03.671Z,36.11
2023-09-11T03:19:33.597Z,35.93
2023-09-11T03:22:00.662Z,36.03
2023-09-11T03:24:27.691Z,35.97
2023-09-11T03:26:56.281Z,36.08
2023-09-11T03:29:23.524Z,36.40
2023-09-11T03:31:50.591Z,36.30
2023-09-11T03:34:17.811Z,36.22
2023-09-11T03:36:45.091Z,36.52
2023-09-11T03:39:12.173Z,36.39
2023-09-11T03:41:39.364Z,36.16
2023-09-11T03:44:08.229Z,36.20
2023-09-11T03:46:35.362Z,36.56
2023-09-11T03:49:02.589Z,36.63
2023-09-11T03:51:29.569Z,36.87
2023-09-11T03:53:59.493Z,37.20
2023-09-11T03:56:27.030Z,36.93
2023-09-11T03:58:54.349Z,37.07
2023-09-11T04:01:22.915Z,37.29
2023-09-11T04:03:50.177Z,36.82
2023-09-11T04:06:17.344Z,37.03
2023-09-11T04:08:44.361Z,36.91
2023-09-11T04:11:11.521Z,37.19
2023-09-11T04:13:38.599Z,37.04
2023-09-11T04:16:05.597Z,37.13
2023-09-11T04:18:34.215Z,37.28
2023-09-11T04:21:02.085Z,37.05
2023-09-11T04:23:29.210Z,36.75
2023-09-11T04:25:57.082Z,36.74
2023-09-11T04:28:24.153Z,37.03
2023-09-11T04:30:51.213Z,37.10
2023-09-11T04:33:19.746Z,37.65
2023-09-11T04:35:48.483Z,37.50
2023-09-11T04:38:15.553Z,37.89
2023-09-11T04:40:42.678Z,38.41
2023-09-11T04:43:09.784Z,38.56
2023-09-11T04:45:38.590Z,38.83
2023-09-11T04:48:07.069Z,38.98
2023-09-11T04:50:34.746Z,39.00
2023-09-11T04:53:03.746Z,39.58
2023-09-11T04:55:32.028Z,40.80
2023-09-11T04:57:59.156Z,39.63
2023-09-11T05:00:27.186Z,40.39
2023-09-11T05:02:54.385Z,40.03
2023-09-11T05:05:21.654Z,39.04
2023-09-11T05:07:48.694Z,38.61
2023-09-11T05:10:17.536Z,39.16
2023-09-11T05:12:44.714Z,38.95
2023-09-11T05:15:11.774Z,39.40
2023-09-11T05:17:39.012Z,39.38
2023-09-11T05:20:07.440Z,39.55
2023-09-11T05:22:34.476Z,39.79
2023-09-11T05:25:01.611Z,40.34
2023-09-11T05:27:30.156Z,39.87
2023-09-11T05:29:57.282Z,39.83
2023-09-11T05:32:24.520Z,40.50
2023-09-11T05:34:51.793Z,40.25
2023-09-11T05:37:19.017Z,39.72
2023-09-11T05:39:46.800Z,40.29
2023-09-11T05:42:14.052Z,40.34
2023-09-11T05:44:42.586Z,40.15
2023-09-11T05:47:10.110Z,39.40
2023-09-11T05:49:37.273Z,40.35
2023-09-11T05:52:05.282Z,40.86
2023-09-11T05:54:32.474Z,40.75
2023-09-11T05:56:59.606Z,40.96
2023-09-11T05:59:26.880Z,40.43
2023-09-11T06:01:55.597Z,41.17
2023-09-11T06:04:22.707Z,40.28
2023-09-11T06:06:49.805Z,40.62
2023-09-11T06:09:16.967Z,40.17
2023-09-11T06:11:44.112Z,40.53
2023-09-11T06:14:11.233Z,40.45
2023-09-11T06:16:38.217Z,41.06
2023-09-11T06:19:06.879Z,40.29
2023-09-11T06:21:34.290Z,39.85
2023-09-11T06:24:01.568Z,40.12
2023-09-11T06:26:28.775Z,39.71
2023-09-11T06:28:55.834Z,39.11
2023-09-11T06:31:23.671Z,38.62
2023-09-11T06:33:50.962Z,40.16
2023-09-11T06:36:19.578Z,39.50
2023-09-11T06:38:46.727Z,38.72
2023-09-11T06:41:13.858Z,38.31
2023-09-11T06:43:40.896Z,38.01
2023-09-11T06:46:08.027Z,37.51
2023-09-11T06:48:35.342Z,38.45
2023-09-11T06:51:02.524Z,38.03
2023-09-11T06:53:31.192Z,37.14
2023-09-11T06:55:58.276Z,37.95
2023-09-11T06:58:25.322Z,36.83
2023-09-11T07:00:52.569Z,36.02
2023-09-11T07:03:19.794Z,36.50
2023-09-11T07:05:47.154Z,35.95
2023-09-11T07:08:14.324Z,35.90
2023-09-11T07:10:43.143Z,36.21
2023-09-11T07:13:10.216Z,36.29
2023-09-11T07:15:37.353Z,34.84
2023-09-11T07:18:05.152Z,34.36
2023-09-11T07:20:32.274Z,34.23
2023-09-11T07:22:59.492Z,33.54
2023-09-11T07:25:26.575Z,32.38
2023-09-11T07:27:56.357Z,33.65
2023-09-11T07:30:23.836Z,34.09
2023-09-11T07:32:52.167Z,33.02
2023-09-11T07:35:19.339Z,33.95
2023-09-11T07:37:46.480Z,33.85
2023-09-11T07:40:13.578Z,33.68
2023-09-11T07:42:40.721Z,33.01
2023-09-11T07:45:10.144Z,33.16
2023-09-11T07:47:37.482Z,33.64
2023-09-11T07:50:05.280Z,33.89
2023-09-11T07:52:32.358Z,34.07
2023-09-11T07:54:59.473Z,33.26
2023-09-11T07:57:26.553Z,35.13
2023-09-11T07:59:53.736Z,33.54
2023-09-11T08:02:22.356Z,33.37
2023-09-11T08:04:49.454Z,33.63
2023-09-11T08:07:16.554Z,33.53
2023-09-11T08:09:43.634Z,33.28
2023-09-11T08:12:10.840Z,32.92
2023-09-11T08:14:38.033Z,33.37
2023-09-11T08:17:05.297Z,32.84
2023-09-11T08:19:33.772Z,31.73
2023-09-11T08:22:00.901Z,32.70
2023-09-11T08:24:28.054Z,31.69
2023-09-11T08:26:55.217Z,31.98
2023-09-11T08:29:22.418Z,31.97
2023-09-11T08:31:49.524Z,32.60
2023-09-11T08:34:16.784Z,33.47
2023-09-11T08:36:46.261Z,34.03
2023-09-11T08:39:13.614Z,32.33
2023-09-11T08:41:44.113Z,33.87
2023-09-11T08:44:11.596Z,33.44
2023-09-11T08:46:41.450Z,33.44
2023-09-11T08:49:11.740Z,31.99
2023-09-11T08:51:47.515Z,32.24
2023-09-11T08:54:18.083Z,32.88
2023-09-11T08:56:47.297Z,33.34
2023-09-11T08:59:19.556Z,32.42
2023-09-11T09:01:49.620Z,32.17
2023-09-11T09:04:18.409Z,32.19
2023-09-11T09:06:48.278Z,32.34
2023-09-11T09:09:17.179Z,32.81
2023-09-11T09:11:45.093Z,32.76
2023-09-11T09:14:14.312Z,31.67
2023-09-11T09:16:41.451Z,32.46
2023-09-11T09:19:08.575Z,31.25
2023-09-11T09:21:35.673Z,31.96
2023-09-11T09:24:10.355Z,31.30
2023-09-11T09:26:57.183Z,31.56
2023-09-11T09:29:24.356Z,30.91
2023-09-11T09:31:51.819Z,31.55
2023-09-11T09:34:19.450Z,30.52
2023-09-11T09:36:50.380Z,30.48
2023-09-11T09:39:17.762Z,31.89
2023-09-11T09:41:54.726Z,30.74
2023-09-11T09:44:31.903Z,30.80
2023-09-11T09:47:07.477Z,30.91
2023-09-11T09:49:42.811Z,31.27
2023-09-11T09:52:10.016Z,31.40
2023-09-11T09:54:46.897Z,30.84
2023-09-11T09:57:17.935Z,31.38
2023-09-11T09:59:49.611Z,30.88
2023-09-11T10:02:24.060Z,30.02
2023-09-11T10:04:53.252Z,29.93
2023-09-11T10:07:38.481Z,30.23
2023-09-11T10:10:22.817Z,30.32
2023-09-11T10:12:54.559Z,30.89
2023-09-11T10:15:22.958Z,30.30
2023-09-11T10:17:53.835Z,30.39
2023-09-11T10:20:21.757Z,30.64
2023-09-11T10:22:48.966Z,29.97
2023-09-11T10:25:16.266Z,29.71
2023-09-11T10:27:43.502Z,29.21
2023-09-11T10:30:19.993Z,29.22
2023-09-11T10:32:53.271Z,28.29
2023-09-11T10:35:20.919Z,28.10
2023-09-11T10:37:49.123Z,27.71
2023-09-11T10:40:17.884Z,28.95
2023-09-11T10:42:45.366Z,28.58
2023-09-11T10:45:28.392Z,29.51
2023-09-11T10:47:56.196Z,27.62
2023-09-11T10:50:25.301Z,26.71
2023-09-11T10:52:56.268Z,25.82
2023-09-11T10:55:24.901Z,26.26
2023-09-11T10:57:53.232Z,26.69
2023-09-11T11:00:22.916Z,26.33
2023-09-11T11:02:54.504Z,26.55
2023-09-11T11:05:21.944Z,28.02
2023-09-11T11:07:50.043Z,28.83
2023-09-11T11:10:18.220Z,29.30
2023-09-11T11:12:47.305Z,28.17
2023-09-11T11:15:23.048Z,27.94
2023-09-11T11:18:11.103Z,27.29
2023-09-11T11:21:00.898Z,27.16
2023-09-11T11:23:31.729Z,26.86
2023-09-11T11:26:01.202Z,26.48
2023-09-11T11:28:40.066Z,26.29
2023-09-11T11:31:09.407Z,27.17
2023-09-11T11:33:38.899Z,27.86
2023-09-11T11:36:07.594Z,27.28
2023-09-11T11:38:36.387Z,28.27
2023-09-11T11:41:04.495Z,27.33
2023-09-11T11:43:32.401Z,26.73
2023-09-11T11:45:59.938Z,28.25
2023-09-11T11:48:28.360Z,26.90
2023-09-11T11:50:57.141Z,27.58
2023-09-11T11:53:26.100Z,26.64
2023-09-11T11:55:57.363Z,26.43
2023-09-11T11:58:25.622Z,26.91
2023-09-11T12:01:00.668Z,25.59
2023-09-11T12:03:29.108Z,27.05
2023-09-11T12:06:00.296Z,27.82
2023-09-11T12:08:28.635Z,28.43
2023-09-11T12:10:56.219Z,27.82
2023-09-11T12:13:38.539Z,27.82
2023-09-11T12:16:11.411Z,28.77
2023-09-11T12:18:43.045Z,28.30
2023-09-11T12:21:12.038Z,29.31
2023-09-11T12:23:39.275Z,27.15
2023-09-11T12:26:07.102Z,26.42
2023-09-11T12:28:35.136Z,27.28
2023-09-11T12:31:02.881Z,26.75
2023-09-11T12:33:30.897Z,26.63
2023-09-11T12:35:58.418Z,26.55
2023-09-11T12:38:27.920Z,25.94
2023-09-11T12:40:58.317Z,26.35
2023-09-11T12:43:26.877Z,26.88
2023-09-11T12:45:54.325Z,28.69
2023-09-11T12:48:22.986Z,27.83
2023-09-11T12:50:50.490Z,27.47
2023-09-11T12:53:17.871Z,27.37
2023-09-11T12:55:48.847Z,26.59
2023-09-11T12:58:18.589Z,27.47
2023-09-11T13:00:49.449Z,27.95
2023-09-11T13:03:17.109Z,28.13
2023-09-11T13:05:45.987Z,28.34
2023-09-11T13:08:15.866Z,27.55
2023-09-11T13:10:42.948Z,26.96
2023-09-11T13:13:21.331Z,26.40
2023-09-11T13:15:52.662Z,25.80
2023-09-11T13:18:19.898Z,25.33
2023-09-11T13:20:47.165Z,24.48
2023-09-11T13:23:14.380Z,25.58
2023-09-11T13:25:41.554Z,25.66
2023-09-11T13:28:08.649Z,24.82
2023-09-11T13:30:37.115Z,24.60
2023-09-11T13:33:05.198Z,23.77
2023-09-11T13:35:32.401Z,23.61
2023-09-11T13:37:59.463Z,23.39
2023-09-11T13:40:26.659Z,23.42
2023-09-11T13:42:53.760Z,23.81
2023-09-11T13:45:20.914Z,23.87
2023-09-11T13:47:49.586Z,23.97
2023-09-11T13:50:16.871Z,23.53
2023-09-11T13:52:43.946Z,23.47
2023-09-11T13:55:11.179Z,23.18
2023-09-11T13:57:38.358Z,24.11
2023-09-11T14:00:06.877Z,23.81
2023-09-11T14:02:34.115Z,23.35
2023-09-11T14:05:02.890Z,23.47
2023-09-11T14:07:30.003Z,24.13
2023-09-11T14:09:57.127Z,22.90
2023-09-11T14:12:24.277Z,23.10
2023-09-11T14:14:52.663Z,22.78
2023-09-11T14:17:19.909Z,22.13
2023-09-11T14:19:47.045Z,22.91
2023-09-11T14:22:15.560Z,22.60
2023-09-11T14:24:42.881Z,21.96
2023-09-11T14:27:10.115Z,22.49
2023-09-11T14:29:37.170Z,22.17
2023-09-11T14:32:04.527Z,21.48
2023-09-11T14:34:31.621Z,21.72
2023-09-11T14:37:16.858Z,21.89
2023-09-11T14:39:47.222Z,22.15
2023-09-11T14:42:14.428Z,22.00
2023-09-11T14:44:41.563Z,21.99
2023-09-11T14:47:08.687Z,21.89
2023-09-11T14:49:35.859Z,21.78
2023-09-11T14:52:03.125Z,22.28
2023-09-11T14:54:35.830Z,22.13
2023-09-11T14:57:16.296Z,22.12
2023-09-11T14:59:43.437Z,22.28
2023-09-11T15:02:10.630Z,21.99
2023-09-11T15:04:49.331Z,21.89
2023-09-11T15:07:17.945Z,22.36
2023-09-11T15:09:46.817Z,22.49
2023-09-11T15:12:15.870Z,22.23
2023-09-11T15:14:43.428Z,22.02
2023-09-11T15:17:11.049Z,21.99
2023-09-11T15:19:38.296Z,21.97
2023-09-11T15:22:05.604Z,22.59
2023-09-11T15:24:32.718Z,22.34
2023-09-11T15:26:59.994Z,22.10
2023-09-11T15:29:30.087Z,22.21
2023-09-11T15:32:10.152Z,21.76
2023-09-11T15:34:40.280Z,21.90
2023-09-11T15:37:09.772Z,21.87
2023-09-11T15:39:36.911Z,21.96
2023-09-11T15:42:04.685Z,21.00
2023-09-11T15:44:33.367Z,20.90
2023-09-11T15:47:00.901Z,21.26
2023-09-11T15:49:28.038Z,21.16
2023-09-11T15:51:55.119Z,21.12
2023-09-11T15:54:22.311Z,21.31
2023-09-11T15:56:49.462Z,21.48
2023-09-11T15:59:16.561Z,21.38
2023-09-11T16:01:45.080Z,20.98
2023-09-11T16:04:12.324Z,21.02
2023-09-11T16:06:39.559Z,21.19
2023-09-11T16:09:06.714Z,21.66
2023-09-11T16:11:33.925Z,21.96
2023-09-11T16:14:01.151Z,22.05
2023-09-11T16:16:29.276Z,21.67
2023-09-11T16:18:58.077Z,21.51
2023-09-11T16:21:38.908Z,21.97
2023-09-11T16:24:08.400Z,22.12
2023-09-11T16:26:36.417Z,22.11
2023-09-11T16:29:03.658Z,21.98
2023-09-11T16:31:31.392Z,21.71
2023-09-11T16:34:00.421Z,21.88
2023-09-11T16:36:28.195Z,22.13
2023-09-11T16:38:55.365Z,22.50
2023-09-11T16:41:22.533Z,21.95
2023-09-11T16:43:49.680Z,21.51
2023-09-11T16:46:19.425Z,23.19
2023-09-11T16:48:47.043Z,23.24
2023-09-11T16:51:15.730Z,23.16
2023-09-11T16:53:43.183Z,22.17
2023-09-11T16:56:10.384Z,22.67
2023-09-11T16:58:37.459Z,22.74
2023-09-11T17:01:05.292Z,23.96
2023-09-11T17:03:32.705Z,22.94
2023-09-11T17:05:59.926Z,22.68
2023-09-11T17:08:28.544Z,22.62
2023-09-11T17:10:57.657Z,22.89
2023-09-11T17:13:24.807Z,23.31
2023-09-11T17:15:52.030Z,24.66
2023-09-11T17:18:19.258Z,23.36
2023-09-11T17:20:46.507Z,23.60
2023-09-11T17:23:13.905Z,24.31
2023-09-11T17:25:42.483Z,24.98
2023-09-11T17:28:10.223Z,26.36
2023-09-11T17:30:37.390Z,26.62
2023-09-11T17:33:07.073Z,27.21
2023-09-11T17:35:36.667Z,26.15
2023-09-11T17:38:04.222Z,25.68
2023-09-11T17:40:31.531Z,25.88
2023-09-11T17:43:00.123Z,27.80
2023-09-11T17:45:27.382Z,30.45
2023-09-11T17:47:54.700Z,29.47
2023-09-11T17:50:21.850Z,29.38
2023-09-11T17:52:49.686Z,27.74
2023-09-11T17:55:17.093Z,28.02
2023-09-11T17:57:44.270Z,27.99
2023-09-11T18:00:14.671Z,28.32
2023-09-11T18:02:42.184Z,29.30
2023-09-11T18:05:10.043Z,30.03
2023-09-11T18:07:37.222Z,29.18
2023-09-11T18:10:05.074Z,29.68
2023-09-11T18:12:33.068Z,29.38
2023-09-11T18:15:02.654Z,31.72
2023-09-11T18:17:31.403Z,31.17
2023-09-11T18:19:58.622Z,31.34
2023-09-11T18:22:25.739Z,31.65
2023-09-11T18:24:52.843Z,31.56
2023-09-11T18:27:19.992Z,30.31
2023-09-11T18:29:47.274Z,30.65
2023-09-11T18:32:14.563Z,30.39
2023-09-11T18:34:43.137Z,31.60
2023-09-11T18:37:10.417Z,30.10
2023-09-11T18:39:37.809Z,30.51
2023-09-11T18:42:05.744Z,31.58
2023-09-11T18:44:33.049Z,30.87
2023-09-11T18:47:00.200Z,31.91
2023-09-11T18:49:27.419Z,31.63
2023-09-11T18:51:56.019Z,32.14
2023-09-11T18:54:23.139Z,31.14
2023-09-11T18:56:50.358Z,30.61
2023-09-11T18:59:17.543Z,31.55
2023-09-11T19:01:44.796Z,30.56
2023-09-11T19:04:12.657Z,31.47
2023-09-11T19:06:41.526Z,31.71
2023-09-11T19:09:12.729Z,30.86
2023-09-11T19:11:39.921Z,31.72
2023-09-11T19:14:07.007Z,32.56
2023-09-11T19:16:34.156Z,31.78
2023-09-11T19:19:01.329Z,32.47
2023-09-11T19:21:28.657Z,32.47
2023-09-11T19:23:55.860Z,32.40
2023-09-11T19:26:26.202Z,32.56
2023-09-11T19:28:54.258Z,32.95
2023-09-11T19:31:21.471Z,31.39
2023-09-11T19:33:49.062Z,32.08
2023-09-11T19:36:16.264Z,32.65
2023-09-11T19:38:44.540Z,32.78
2023-09-11T19:41:12.004Z,32.42
2023-09-11T19:43:40.798Z,32.74
2023-09-11T19:46:08.360Z,32.91
2023-09-11T19:48:35.667Z,32.93
2023-09-11T19:51:03.293Z,32.36
2023-09-11T19:53:30.669Z,32.61
2023-09-11T19:55:57.756Z,32.69
2023-09-11T19:58:24.900Z,32.85
2023-09-11T20:00:53.403Z,32.76
2023-09-11T20:03:21.542Z,32.99
2023-09-11T20:05:49.613Z,33.39
2023-09-11T20:08:16.699Z,31.97
2023-09-11T20:10:43.879Z,33.05
2023-09-11T20:13:10.926Z,32.94
2023-09-11T20:15:38.177Z,33.10
2023-09-11T20:18:07.052Z,32.73
2023-09-11T20:20:34.358Z,33.31
2023-09-11T20:23:02.112Z,32.66
2023-09-11T20:25:31.952Z,33.30
2023-09-11T20:27:59.718Z,34.14
2023-09-11T20:30:26.830Z,32.75
2023-09-11T20:32:54.039Z,32.83
2023-09-11T20:35:22.576Z,32.92
2023-09-11T20:37:49.642Z,33.55
2023-09-11T20:40:16.757Z,33.00
2023-09-11T20:42:43.928Z,32.50
2023-09-11T20:45:11.151Z,32.77
2023-09-11T20:47:38.314Z,32.74
2023-09-11T20:50:06.599Z,32.39
2023-09-11T20:52:35.470Z,32.49
2023-09-11T20:55:05.136Z,32.37
2023-09-11T20:57:33.101Z,32.44
2023-09-11T21:00:00.898Z,33.08
2023-09-11T21:02:28.354Z,32.62
2023-09-11T21:04:55.738Z,33.01
2023-09-11T21:07:23.358Z,32.62
2023-09-11T21:09:51.961Z,32.59
2023-09-11T21:12:19.869Z,32.95
2023-09-11T21:14:47.085Z,32.46
2023-09-11T21:17:14.422Z,31.77
2023-09-11T21:19:42.185Z,32.78
2023-09-11T21:22:09.307Z,32.98
2023-09-11T21:24:37.239Z,32.57
2023-09-11T21:27:06.197Z,32.94
2023-09-11T21:29:33.268Z,32.58
2023-09-11T21:32:00.381Z,32.20
2023-09-11T21:34:28.560Z,32.14
2023-09-11T21:36:55.891Z,32.38
2023-09-11T21:39:23.054Z,32.92
2023-09-11T21:41:51.624Z,32.45
2023-09-11T21:44:20.639Z,32.71
2023-09-11T21:46:47.882Z,32.92
2023-09-11T21:49:14.979Z,32.57
2023-09-11T21:51:42.065Z,31.83
2023-09-11T21:54:14.979Z,32.15
2023-09-11T21:56:42.898Z,32.62
2023-09-11T21:59:10.161Z,32.64
2023-09-11T22:01:39.518Z,32.97
2023-09-11T22:04:07.396Z,32.96
2023-09-11T22:06:34.656Z,33.26
2023-09-11T22:09:02.372Z,32.97
2023-09-11T22:11:29.540Z,33.56
2023-09-11T22:13:57.161Z,33.46
2023-09-11T22:16:24.471Z,33.10
2023-09-11T22:18:53.193Z,33.45
2023-09-11T22:21:20.368Z,33.07
2023-09-11T22:23:47.456Z,33.65
2023-09-11T22:26:14.576Z,33.21
2023-09-11T22:28:41.700Z,33.85
2023-09-11T22:31:08.956Z,34.39
2023-09-11T22:33:36.205Z,33.90
2023-09-11T22:36:05.526Z,34.02
2023-09-11T22:38:32.716Z,33.97
2023-09-11T22:40:59.789Z,34.03
2023-09-11T22:43:26.912Z,33.76
2023-09-11T22:45:53.955Z,33.94
2023-09-11T22:48:21.169Z,33.60
2023-09-11T22:50:48.441Z,34.07
2023-09-11T22:53:17.068Z,34.54
2023-09-11T22:55:44.135Z,34.08
2023-09-11T22:58:11.213Z,34.30
2023-09-11T23:00:38.747Z,34.28
2023-09-11T23:03:06.893Z,34.41
2023-09-11T23:05:34.737Z,34.32
2023-09-11T23:08:01.827Z,34.37
2023-09-11T23:10:30.376Z,34.37
2023-09-11T23:12:57.384Z,34.60
2023-09-11T23:15:24.658Z,34.24
2023-09-11T23:17:51.718Z,34.80
2023-09-11T23:20:18.840Z,34.88
2023-09-11T23:22:46.116Z,34.80
2023-09-11T23:25:13.259Z,35.14
2023-09-11T23:27:41.886Z,34.88
2023-09-11T23:30:09.940Z,34.95
2023-09-11T23:32:37.260Z,35.48
2023-09-11T23:35:05.203Z,35.23
2023-09-11T23:37:32.433Z,35.35
2023-09-11T23:39:59.874Z,35.40
2023-09-11T23:42:27.258Z,34.97
2023-09-11T23:44:55.838Z,35.27
2023-09-11T23:47:23.018Z,35.32
2023-09-11T23:49:50.016Z,35.56
2023-09-11T23:52:26.382Z,35.51
2023-09-11T23:54:54.821Z,35.71
2023-09-11T23:57:22.056Z,35.31
2023-09-11T23:59:49.238Z,35.41
